< < Back
Terminal Aerodrome Forecast


Current Version              Previous Versions:   1  2  3  4  5  6  7  8  9  

Terminal Aerodrome Forecast

843
FTUS44 KOHX 311240 AAA
TAFCSV
TAF AMD
KCSV 311240Z 3113/0112 00000KT P6SM SKC
     FM311400 35007KT P6SM SCT035
     FM010100 36003KT P6SM SCT150
     FM010400 36001KT 4SM BR SCT150
     FM010900 35002KT 2SM BR OVC020=

Latest METAR

089
SAUS70 KWBC 010300 RRU
MTRCSV
METAR KCSV 010253Z AUTO 01003KT 10SM CLR 22/21 A3003 RMK AO2 SLP144
T02220211 52010


USA.gov is the U.S. government's official web portal to all federal, state and local government web resources and services.